Time;durP1;ratioP1;P1;durP2;ratioP2;P2;SDS_P1;SDS_P2;PMS_P1;PMS_P2;Temp;Humidity;BMP_temperature;BMP_pressure;BME280_temperature;BME280_humidity;BME280_pressure;Samples;Min_cycle;Max_cycle;Signal;HPM_P1;HPM_P2
2023/08/22 00:01:54;;;;;;;5.60;2.20;;;;;;;;;;4882637;29;20231;-73
2023/08/22 00:04:21;;;;;;;3.80;2.27;;;;;;;;;;4886290;29;20923;-73
2023/08/22 00:06:47;;;;;;;5.77;2.30;;;;;;;;;;4885139;29;20733;-73
2023/08/22 00:09:15;;;;;;;4.17;2.27;;;;;;;;;;4884420;29;20204;-73
2023/08/22 00:11:42;;;;;;;4.10;2.20;;;;;;;;;;4879936;29;21023;-73
2023/08/22 00:14:09;;;;;;;6.23;1.93;;;;;;;;;;4879703;29;20188;-73
2023/08/22 00:16:35;;;;;;;4.33;2.30;;;;;;;;;;4879230;29;20289;-72
2023/08/22 00:19:03;;;;;;;4.10;2.30;;;;;;;;;;4892443;29;20203;-73
2023/08/22 00:21:30;;;;;;;3.83;2.33;;;;;;;;;;4890435;29;20664;-73
2023/08/22 00:23:58;;;;;;;7.30;2.43;;;;;;;;;;4885857;29;20204;-73
2023/08/22 00:26:26;;;;;;;6.03;2.00;;;;;;;;;;4891301;29;20208;-73
2023/08/22 00:28:52;;;;;;;4.80;2.10;;;;;;;;;;4875505;29;20307;-73
2023/08/22 00:31:37;;;;;;;3.10;2.00;;;;;;;;;;4887631;29;20259;-73
2023/08/22 00:34:04;;;;;;;5.00;2.23;;;;;;;;;;4873183;29;20185;-73
2023/08/22 00:36:48;;;;;;;5.73;2.23;;;;;;;;;;4871616;29;20984;-72
2023/08/22 00:39:15;;;;;;;5.63;2.90;;;;;;;;;;4872660;29;20193;-72
2023/08/22 00:42:00;;;;;;;4.37;2.63;;;;;;;;;;4887154;29;20236;-72
2023/08/22 00:44:27;;;;;;;4.47;2.57;;;;;;;;;;4855432;29;20260;-73
2023/08/22 00:46:54;;;;;;;8.17;3.40;;;;;;;;;;4855320;29;21031;-72
2023/08/22 00:49:21;;;;;;;5.20;2.37;;;;;;;;;;4872379;29;20299;-73
2023/08/22 00:51:47;;;;;;;5.13;2.70;;;;;;;;;;4871278;29;20201;-73
2023/08/22 00:54:32;;;;;;;3.50;2.43;;;;;;;;;;4875643;29;20184;-73
2023/08/22 00:56:58;;;;;;;6.33;3.20;;;;;;;;;;4883217;29;20207;-72
2023/08/22 00:59:25;;;;;;;6.47;2.90;;;;;;;;;;4878311;29;20197;-72
2023/08/22 01:01:52;;;;;;;5.67;2.87;;;;;;;;;;4879508;29;20623;-73
2023/08/22 01:04:19;;;;;;;4.30;2.70;;;;;;;;;;4891779;29;20295;-71
2023/08/22 01:07:05;;;;;;;7.97;3.87;;;;;;;;;;4893354;29;20603;-72
2023/08/22 01:09:32;;;;;;;7.10;3.87;;;;;;;;;;4877986;29;20200;-72
2023/08/22 01:43:54;;;;;;;13.53;5.17;;;;;;;;;;4879125;29;20292;-72
2023/08/22 01:46:21;;;;;;;16.77;6.53;;;;;;;;;;4877728;29;20279;-72
2023/08/22 01:48:49;;;;;;;9.93;5.67;;;;;;;;;;4877307;29;20199;-72
2023/08/22 01:51:22;;;;;;;14.50;5.93;;;;;;;;;;4876638;29;20272;-73
2023/08/22 01:53:49;;;;;;;19.23;6.63;;;;;;;;;;4877078;29;20201;-72
2023/08/22 01:56:16;;;;;;;14.00;5.90;;;;;;;;;;4892019;29;20197;-73
2023/08/22 01:58:44;;;;;;;12.20;6.47;;;;;;;;;;4892121;29;20712;-72
2023/08/22 02:01:11;;;;;;;14.10;6.00;;;;;;;;;;4863061;29;20200;-72
2023/08/22 02:03:40;;;;;;;15.97;6.10;;;;;;;;;;4863924;29;20288;-73
2023/08/22 02:06:07;;;;;;;14.10;5.90;;;;;;;;;;4863420;29;20849;-72
2023/08/22 02:08:51;;;;;;;11.20;5.83;;;;;;;;;;4893168;29;20184;-72
2023/08/22 02:11:18;;;;;;;15.43;7.77;;;;;;;;;;4877098;29;20552;-73
2023/08/22 02:14:03;;;;;;;18.87;7.87;;;;;;;;;;4880190;29;20263;-73
2023/08/22 02:16:29;;;;;;;15.20;8.17;;;;;;;;;;4894712;29;20199;-73
2023/08/22 02:19:16;;;;;;;19.73;7.87;;;;;;;;;;4876364;29;20176;-73
2023/08/22 02:21:43;;;;;;;17.27;7.60;;;;;;;;;;4875950;29;20253;-72
2023/08/22 02:24:23;;;;;;;15.63;7.70;;;;;;;;;;4875856;29;20196;-72
2023/08/22 02:26:51;;;;;;;15.43;8.13;;;;;;;;;;4891714;29;20229;-72
2023/08/22 02:29:19;;;;;;;15.70;7.73;;;;;;;;;;4879414;29;20200;-74
2023/08/22 02:31:46;;;;;;;15.30;8.03;;;;;;;;;;4892746;29;20203;-73
2023/08/22 02:34:15;;;;;;;15.83;7.60;;;;;;;;;;4894783;29;20323;-72
2023/08/22 02:36:44;;;;;;;21.03;9.03;;;;;;;;;;4895533;29;20188;-72
2023/08/22 02:39:11;;;;;;;16.73;7.57;;;;;;;;;;4879107;29;20540;-72
2023/08/22 02:41:39;;;;;;;14.57;7.83;;;;;;;;;;4894533;29;20207;-73
2023/08/22 02:44:23;;;;;;;16.67;7.63;;;;;;;;;;4893718;29;20683;-73
2023/08/22 02:46:52;;;;;;;13.20;7.37;;;;;;;;;;4910077;29;20212;-72
2023/08/22 02:49:19;;;;;;;16.77;7.97;;;;;;;;;;4894025;29;20244;-73
2023/08/22 02:51:45;;;;;;;16.27;7.70;;;;;;;;;;4894073;29;20204;-72
2023/08/22 02:54:12;;;;;;;15.30;7.43;;;;;;;;;;4894247;29;20259;-72
2023/08/22 02:56:39;;;;;;;13.03;7.03;;;;;;;;;;4893908;29;20200;-73
2023/08/22 02:59:06;;;;;;;14.43;7.33;;;;;;;;;;4894263;29;20676;-72
2023/08/22 03:01:32;;;;;;;13.73;7.13;;;;;;;;;;4893783;29;20219;-72
2023/08/22 03:04:17;;;;;;;13.03;7.80;;;;;;;;;;4895271;29;20192;-72
2023/08/22 03:06:44;;;;;;;17.17;8.10;;;;;;;;;;4862025;29;20556;-72
2023/08/22 03:09:11;;;;;;;16.73;8.30;;;;;;;;;;4876222;29;20185;-72
2023/08/22 03:11:38;;;;;;;19.13;10.13;;;;;;;;;;4874922;29;20284;-72
2023/08/22 03:14:05;;;;;;;16.13;8.70;;;;;;;;;;4875150;29;20683;-72
2023/08/22 03:16:50;;;;;;;14.97;8.03;;;;;;;;;;4867972;29;20183;-72
2023/08/22 03:19:17;;;;;;;16.30;8.20;;;;;;;;;;4893769;29;20192;-72
2023/08/22 03:21:45;;;;;;;16.93;7.90;;;;;;;;;;4862766;29;20564;-72
2023/08/22 03:24:12;;;;;;;19.50;11.17;;;;;;;;;;4891868;29;20861;-73
2023/08/22 03:26:39;;;;;;;14.90;8.77;;;;;;;;;;4894949;29;20196;-72
2023/08/22 03:29:23;;;;;;;12.20;8.17;;;;;;;;;;4895587;29;20236;-72
2023/08/22 03:31:53;;;;;;;15.23;8.63;;;;;;;;;;4878648;29;20204;-72
2023/08/22 03:34:38;;;;;;;13.50;8.37;;;;;;;;;;4895993;29;20644;-73
2023/08/22 03:37:06;;;;;;;15.00;8.57;;;;;;;;;;4862814;29;20208;-72
2023/08/22 03:39:33;;;;;;;10.90;7.67;;;;;;;;;;4908876;29;20211;-73
2023/08/22 03:42:00;;;;;;;13.53;8.00;;;;;;;;;;4893612;29;20203;-72
2023/08/22 03:44:27;;;;;;;11.30;7.33;;;;;;;;;;4893023;29;20206;-72
2023/08/22 03:47:11;;;;;;;15.43;7.27;;;;;;;;;;4908674;29;20176;-73
2023/08/22 03:49:42;;;;;;;10.57;6.90;;;;;;;;;;4893447;29;20188;-73
2023/08/22 03:52:09;;;;;;;11.70;7.60;;;;;;;;;;4894197;29;20632;-73
2023/08/22 03:54:37;;;;;;;12.43;7.20;;;;;;;;;;4894376;29;20652;-73
2023/08/22 03:57:03;;;;;;;12.13;7.77;;;;;;;;;;4891034;29;20551;-72
2023/08/22 03:59:31;;;;;;;11.37;8.33;;;;;;;;;;4892738;29;20222;-73
2023/08/22 04:01:57;;;;;;;15.13;8.30;;;;;;;;;;4892984;29;20204;-73
2023/08/22 04:04:24;;;;;;;12.33;7.20;;;;;;;;;;4892840;29;20198;-72
2023/08/22 04:07:08;;;;;;;13.27;7.53;;;;;;;;;;4891481;29;20176;-73
2023/08/22 04:09:35;;;;;;;11.30;7.37;;;;;;;;;;4892829;29;20210;-75
2023/08/22 04:12:05;;;;;;;11.40;7.40;;;;;;;;;;4881413;29;20214;-76
2023/08/22 04:14:34;;;;;;;12.53;7.90;;;;;;;;;;4870850;29;20215;-75
2023/08/22 04:17:04;;;;;;;10.83;7.10;;;;;;;;;;4885257;29;20200;-78
2023/08/22 04:19:32;;;;;;;12.33;7.80;;;;;;;;;;4888381;29;20204;-75
2023/08/22 04:22:00;;;;;;;12.37;8.90;;;;;;;;;;4889080;29;20576;-75
2023/08/22 04:24:27;;;;;;;13.37;8.13;;;;;;;;;;4886151;29;20236;-75
2023/08/22 04:26:55;;;;;;;12.73;7.50;;;;;;;;;;4879496;29;20548;-75
2023/08/22 04:29:22;;;;;;;12.83;7.80;;;;;;;;;;4903656;29;20644;-77
2023/08/22 04:31:49;;;;;;;11.73;7.67;;;;;;;;;;4873606;29;20232;-75
2023/08/22 04:34:16;;;;;;;11.67;8.23;;;;;;;;;;4888819;29;20200;-75
2023/08/22 04:36:56;;;;;;;15.13;8.13;;;;;;;;;;4889190;29;20274;-76
2023/08/22 04:39:23;;;;;;;13.07;7.83;;;;;;;;;;4885736;29;20325;-75
2023/08/22 04:41:59;;;;;;;13.37;8.03;;;;;;;;;;4871097;29;20192;-75
2023/08/22 04:44:29;;;;;;;13.47;8.33;;;;;;;;;;4904191;29;20715;-74
2023/08/22 04:46:56;;;;;;;15.53;8.77;;;;;;;;;;4903759;29;20274;-75
2023/08/22 04:49:24;;;;;;;14.80;8.40;;;;;;;;;;4887961;29;20196;-75
2023/08/22 04:51:51;;;;;;;13.23;8.57;;;;;;;;;;4904779;29;20191;-74
2023/08/22 04:54:17;;;;;;;11.70;8.13;;;;;;;;;;4907518;29;20204;-75
2023/08/22 04:56:45;;;;;;;13.57;8.40;;;;;;;;;;4890518;29;20224;-77
2023/08/22 04:59:32;;;;;;;15.93;9.10;;;;;;;;;;4891973;29;20193;-76
2023/08/22 05:02:00;;;;;;;12.73;8.90;;;;;;;;;;4904522;29;20193;-73
2023/08/22 05:04:30;;;;;;;12.80;9.37;;;;;;;;;;4884462;29;20228;-74
2023/08/22 05:06:57;;;;;;;13.40;9.20;;;;;;;;;;4871641;29;20236;-78
2023/08/22 05:09:24;;;;;;;14.53;8.70;;;;;;;;;;4887216;29;20203;-74
2023/08/22 05:11:51;;;;;;;13.57;9.00;;;;;;;;;;4880118;29;20240;-75
2023/08/22 05:14:19;;;;;;;13.13;9.27;;;;;;;;;;4885305;29;20288;-75
2023/08/22 05:16:46;;;;;;;16.40;9.60;;;;;;;;;;4872233;29;20200;-74
2023/08/22 05:19:31;;;;;;;12.97;8.50;;;;;;;;;;4875379;29;20184;-75
2023/08/22 05:21:57;;;;;;;12.10;8.27;;;;;;;;;;4905056;29;20762;-76
2023/08/22 05:24:24;;;;;;;11.00;7.50;;;;;;;;;;4887847;29;20232;-75
2023/08/22 05:26:51;;;;;;;10.23;7.40;;;;;;;;;;4888790;29;20208;-76
2023/08/22 05:29:20;;;;;;;10.70;7.43;;;;;;;;;;4887226;29;20280;-74
2023/08/22 05:31:47;;;;;;;10.13;7.23;;;;;;;;;;4887903;29;20240;-74
2023/08/22 05:34:14;;;;;;;12.33;7.33;;;;;;;;;;4887426;29;20208;-73
2023/08/22 05:36:41;;;;;;;9.77;6.73;;;;;;;;;;4887000;29;20311;-74
2023/08/22 05:39:10;;;;;;;7.97;6.13;;;;;;;;;;4871972;29;20924;-74
2023/08/22 05:41:37;;;;;;;8.27;6.50;;;;;;;;;;4889628;29;20196;-74
2023/08/22 05:44:05;;;;;;;10.47;7.00;;;;;;;;;;4880606;29;20219;-74
2023/08/22 05:46:33;;;;;;;13.10;6.67;;;;;;;;;;4865719;29;20347;-74
2023/08/22 05:49:01;;;;;;;10.40;6.80;;;;;;;;;;4871216;29;20207;-75
2023/08/22 05:51:28;;;;;;;8.80;6.60;;;;;;;;;;4890320;29;20192;-75
